createdAt,value
2018-02-17T00:01:26.403Z,100856.45
2018-02-17T00:03:52.349Z,100855.07
2018-02-17T00:06:18.295Z,100854.11
2018-02-17T00:08:45.350Z,100857.77
2018-02-17T00:11:11.296Z,100855.69
2018-02-17T00:13:37.252Z,100853.87
2018-02-17T00:16:03.200Z,100851.30
2018-02-17T00:18:29.147Z,100838.97
2018-02-17T00:20:55.071Z,100853.98
2018-02-17T00:23:20.991Z,100856.72
2018-02-17T00:25:46.914Z,100862.66
2018-02-17T00:28:12.869Z,100858.84
2018-02-17T00:30:38.840Z,100868.22
2018-02-17T00:33:04.787Z,100873.20
2018-02-17T00:35:30.725Z,100879.15
2018-02-17T00:37:56.667Z,100875.11
2018-02-17T00:40:22.663Z,100881.39
2018-02-17T00:42:48.563Z,100885.47
2018-02-17T00:45:14.518Z,100897.92
2018-02-17T00:47:40.458Z,100900.39
2018-02-17T00:50:06.409Z,100896.20
2018-02-17T00:52:32.336Z,100907.38
2018-02-17T00:54:58.288Z,100906.71
2018-02-17T00:57:24.228Z,100904.20
2018-02-17T00:59:50.179Z,100906.85
2018-02-17T01:02:16.116Z,100905.56
2018-02-17T01:04:42.057Z,100901.08
2018-02-17T01:07:07.988Z,100899.03
2018-02-17T01:09:33.930Z,100898.59
2018-02-17T01:11:59.864Z,100891.25
2018-02-17T01:14:25.813Z,100889.41
2018-02-17T01:16:51.754Z,100892.02
2018-02-17T01:19:17.688Z,100881.83
2018-02-17T01:21:43.622Z,100878.47
2018-02-17T01:24:09.563Z,100878.61
2018-02-17T01:26:35.504Z,100880.34
2018-02-17T01:29:01.439Z,100870.47
2018-02-17T01:31:27.380Z,100877.02
2018-02-17T01:33:53.314Z,100874.12
2018-02-17T01:36:19.266Z,100870.72
2018-02-17T01:38:45.206Z,100869.48
2018-02-17T01:41:11.137Z,100876.47
2018-02-17T01:43:37.079Z,100871.89
2018-02-17T01:46:03.039Z,100873.08
2018-02-17T01:48:29.006Z,100877.63
2018-02-17T01:50:54.938Z,100865.88
2018-02-17T01:53:20.892Z,100864.97
2018-02-17T01:55:46.834Z,100863.36
2018-02-17T01:58:12.786Z,100855.26
2018-02-17T02:00:38.729Z,100853.74
2018-02-17T02:03:04.654Z,100852.62
2018-02-17T02:05:30.594Z,100847.31
2018-02-17T02:07:56.529Z,100841.39
2018-02-17T02:10:22.456Z,100837.84
2018-02-17T02:12:48.394Z,100834.84
2018-02-17T02:15:14.321Z,100824.76
2018-02-17T02:17:40.243Z,100832.08
2018-02-17T02:20:06.188Z,100828.70
2018-02-17T02:22:32.136Z,100835.20
2018-02-17T02:24:58.062Z,100840.34
2018-02-17T02:27:23.987Z,100842.16
2018-02-17T02:29:49.925Z,100836.95
2018-02-17T02:32:15.885Z,100838.59
2018-02-17T02:34:41.835Z,100834.53
2018-02-17T02:37:07.754Z,100832.06
2018-02-17T02:39:33.686Z,100831.47
2018-02-17T02:41:59.638Z,100842.03
2018-02-17T02:44:25.596Z,100838.60
2018-02-17T02:46:51.516Z,100840.36
2018-02-17T02:49:17.473Z,100843.73
2018-02-17T02:51:43.412Z,100843.53
2018-02-17T02:54:09.337Z,100837.95
2018-02-17T02:56:35.286Z,100827.54
2018-02-17T02:59:01.224Z,100828.02
2018-02-17T03:01:27.154Z,100823.07
2018-02-17T03:03:53.079Z,100825.66
2018-02-17T03:06:19.010Z,100825.33
2018-02-17T03:08:44.942Z,100827.80
2018-02-17T03:11:10.896Z,100822.52
2018-02-17T03:13:36.835Z,100821.41
2018-02-17T03:16:02.770Z,100823.55
2018-02-17T03:18:28.714Z,100810.65
2018-02-17T03:20:54.642Z,100809.48
2018-02-17T03:23:20.590Z,100806.16
2018-02-17T03:25:46.519Z,100802.53
2018-02-17T03:28:12.463Z,100796.62
2018-02-17T03:30:38.409Z,100801.12
2018-02-17T03:33:04.352Z,100806.84
2018-02-17T03:35:30.311Z,100799.25
2018-02-17T03:37:56.277Z,100789.52
2018-02-17T03:40:22.210Z,100789.36
2018-02-17T03:42:48.132Z,100784.41
2018-02-17T03:45:14.074Z,100785.86
2018-02-17T03:47:40.015Z,100782.53
2018-02-17T03:50:06.037Z,100775.45
2018-02-17T03:52:31.977Z,100773.19
2018-02-17T03:54:57.918Z,100768.28
2018-02-17T03:57:23.843Z,100764.52
2018-02-17T03:59:49.798Z,100770.94
2018-02-17T04:02:15.719Z,100770.16
2018-02-17T04:04:41.642Z,100772.58
2018-02-17T04:07:07.567Z,100770.23
2018-02-17T04:09:33.506Z,100771.48
2018-02-17T04:11:59.452Z,100771.34
2018-02-17T04:14:25.396Z,100770.99
2018-02-17T04:16:51.322Z,100769.45
2018-02-17T04:19:17.297Z,100770.18
2018-02-17T04:21:43.236Z,100763.27
2018-02-17T04:24:09.181Z,100769.52
2018-02-17T04:26:35.127Z,100762.23
2018-02-17T04:29:01.070Z,100767.00
2018-02-17T04:31:27.000Z,100770.90
2018-02-17T04:33:52.996Z,100775.22
2018-02-17T04:36:18.933Z,100777.77
2018-02-17T04:38:44.869Z,100776.88
2018-02-17T04:41:10.810Z,100773.31
2018-02-17T04:43:36.746Z,100777.83
2018-02-17T04:46:02.685Z,100772.82
2018-02-17T04:48:28.619Z,100767.69
2018-02-17T04:50:54.547Z,100771.23
2018-02-17T04:53:20.495Z,100760.67
2018-02-17T04:55:46.441Z,100761.36
2018-02-17T04:58:12.373Z,100758.87
2018-02-17T05:00:38.299Z,100765.95
2018-02-17T05:03:04.238Z,100763.61
2018-02-17T05:05:30.173Z,100764.79
2018-02-17T05:07:56.117Z,100771.24
2018-02-17T05:10:22.087Z,100768.99
2018-02-17T05:12:48.015Z,100771.78
2018-02-17T05:15:13.954Z,100770.80
2018-02-17T05:17:39.902Z,100767.74
2018-02-17T05:20:05.833Z,100770.46
2018-02-17T05:22:31.776Z,100769.14
2018-02-17T05:24:57.722Z,100763.63
2018-02-17T05:27:23.648Z,100757.85
2018-02-17T05:29:49.584Z,100754.63
2018-02-17T05:32:15.529Z,100754.95
2018-02-17T05:34:41.468Z,100747.16
2018-02-17T05:37:07.398Z,100748.64
2018-02-17T05:39:33.332Z,100739.09
2018-02-17T05:41:59.285Z,100743.03
2018-02-17T05:44:25.217Z,100738.81
2018-02-17T05:46:51.160Z,100733.11
2018-02-17T05:49:17.097Z,100737.41
2018-02-17T05:51:43.055Z,100742.58
2018-02-17T05:54:09.002Z,100739.55
2018-02-17T05:56:34.933Z,100742.17
2018-02-17T05:59:00.876Z,100738.96
2018-02-17T06:01:26.800Z,100747.73
2018-02-17T06:03:52.747Z,100744.29
2018-02-17T06:06:18.695Z,100726.08
2018-02-17T06:08:44.643Z,100728.69
2018-02-17T06:11:10.830Z,100725.89
2018-02-17T06:13:36.772Z,100718.81
2018-02-17T06:16:02.712Z,100729.56
2018-02-17T06:18:28.647Z,100726.66
2018-02-17T06:20:54.574Z,100723.05
2018-02-17T06:23:20.527Z,100722.52
2018-02-17T06:25:46.475Z,100714.80
2018-02-17T06:28:12.413Z,100717.55
2018-02-17T06:30:38.341Z,100716.97
2018-02-17T06:33:04.312Z,100725.50
2018-02-17T06:35:30.250Z,100726.54
2018-02-17T06:37:56.193Z,100723.95
2018-02-17T06:40:22.164Z,100721.35
2018-02-17T06:42:48.108Z,100723.05
2018-02-17T06:45:14.041Z,100718.27
2018-02-17T06:47:39.970Z,100721.14
2018-02-17T06:50:05.914Z,100717.05
2018-02-17T06:52:31.850Z,100717.63
2018-02-17T06:54:57.774Z,100716.38
2018-02-17T06:57:23.698Z,100712.32
2018-02-17T06:59:49.628Z,100711.84
2018-02-17T07:02:15.599Z,100710.22
2018-02-17T07:04:41.519Z,100715.11
2018-02-17T07:07:07.468Z,100709.98
2018-02-17T07:09:33.407Z,100713.87
2018-02-17T07:11:59.345Z,100704.95
2018-02-17T07:14:25.289Z,100706.22
2018-02-17T07:16:51.235Z,100703.96
2018-02-17T07:19:17.181Z,100698.91
2018-02-17T07:21:43.110Z,100701.34
2018-02-17T07:24:09.051Z,100694.36
2018-02-17T07:26:34.973Z,100696.88
2018-02-17T07:29:00.903Z,100693.95
2018-02-17T07:31:26.921Z,100686.61
2018-02-17T07:33:52.860Z,100677.04
2018-02-17T07:36:18.785Z,100673.78
2018-02-17T07:38:44.711Z,100668.27
2018-02-17T07:41:10.644Z,100672.63
2018-02-17T07:43:36.576Z,100672.95
2018-02-17T07:46:02.535Z,100676.84
2018-02-17T07:48:28.482Z,100668.52
2018-02-17T07:50:54.413Z,100665.91
2018-02-17T07:53:20.322Z,100646.30
2018-02-17T07:55:46.288Z,100652.29
2018-02-17T07:58:12.227Z,100653.59
2018-02-17T08:00:38.176Z,100648.86
2018-02-17T08:03:04.113Z,100647.81
2018-02-17T08:05:30.049Z,100654.20
2018-02-17T08:07:56.006Z,100655.27
2018-02-17T08:10:21.935Z,100657.38
2018-02-17T08:12:47.891Z,100650.33
2018-02-17T08:15:13.842Z,100655.66
2018-02-17T08:17:39.775Z,100656.85
2018-02-17T08:20:05.710Z,100653.73
2018-02-17T08:22:31.649Z,100651.21
2018-02-17T08:24:57.575Z,100651.31
2018-02-17T08:27:23.501Z,100644.37
2018-02-17T08:29:49.517Z,100642.55
2018-02-17T08:32:15.546Z,100633.87
2018-02-17T08:34:41.574Z,100631.08
2018-02-17T08:37:07.518Z,100623.52
2018-02-17T08:39:33.444Z,100624.56
2018-02-17T08:41:59.374Z,100624.27
2018-02-17T08:44:25.315Z,100615.83
2018-02-17T08:46:51.270Z,100614.80
2018-02-17T08:49:17.232Z,100609.72
2018-02-17T08:51:43.247Z,100606.16
2018-02-17T08:54:09.177Z,100607.78
2018-02-17T08:56:35.124Z,100600.80
2018-02-17T08:59:01.078Z,100593.48
2018-02-17T09:01:27.017Z,100587.62
2018-02-17T09:03:52.956Z,100578.80
2018-02-17T09:06:18.997Z,100576.42
2018-02-17T09:08:45.998Z,100575.01
2018-02-17T09:11:11.938Z,100574.95
2018-02-17T09:13:37.862Z,100575.27
2018-02-17T09:16:03.795Z,100567.40
2018-02-17T09:18:29.732Z,100562.66
2018-02-17T09:20:55.688Z,100558.69
2018-02-17T09:23:21.668Z,100560.47
2018-02-17T09:25:47.636Z,100553.23
2018-02-17T09:28:13.603Z,100562.35
2018-02-17T09:30:39.598Z,100554.49
2018-02-17T09:33:06.550Z,100558.83
2018-02-17T09:35:32.570Z,100563.59
2018-02-17T09:37:58.612Z,100564.55
2018-02-17T09:40:24.553Z,100557.98
2018-02-17T09:42:50.538Z,100557.38
2018-02-17T09:45:16.478Z,100556.99
2018-02-17T09:47:42.412Z,100553.20
2018-02-17T09:50:08.408Z,100556.45
2018-02-17T09:52:34.342Z,100553.38
2018-02-17T09:55:00.298Z,100562.55
2018-02-17T09:57:26.245Z,100561.12
2018-02-17T09:59:52.219Z,100558.84
2018-02-17T10:02:18.144Z,100561.02
2018-02-17T10:04:44.115Z,100566.13
2018-02-17T10:07:10.119Z,100561.28
2018-02-17T10:09:36.075Z,100562.53
2018-02-17T10:12:02.125Z,100563.58
2018-02-17T10:14:28.101Z,100566.45
2018-02-17T10:16:54.035Z,100570.05
2018-02-17T10:19:19.976Z,100565.47
2018-02-17T10:21:46.037Z,100569.30
2018-02-17T10:24:11.986Z,100570.97
2018-02-17T10:26:37.946Z,100572.27
2018-02-17T10:29:04.002Z,100571.22
2018-02-17T10:31:29.950Z,100572.77
2018-02-17T10:33:55.900Z,100566.77
2018-02-17T10:36:21.831Z,100569.79
2018-02-17T10:38:47.759Z,100574.80
2018-02-17T10:41:13.697Z,100574.48
2018-02-17T10:43:39.640Z,100573.55
2018-02-17T10:46:05.731Z,100567.25
2018-02-17T10:48:31.716Z,100555.83
2018-02-17T10:50:57.634Z,100565.16
2018-02-17T10:53:23.588Z,100555.20
2018-02-17T10:55:49.517Z,100551.06
2018-02-17T10:58:15.456Z,100545.29
2018-02-17T11:00:41.430Z,100538.70
2018-02-17T11:03:07.337Z,100529.45
2018-02-17T11:05:33.398Z,100532.78
2018-02-17T11:07:59.321Z,100527.84
2018-02-17T11:10:25.256Z,100524.48
2018-02-17T11:12:51.196Z,100526.69
2018-02-17T11:15:17.140Z,100522.17
2018-02-17T11:17:43.126Z,100519.80
2018-02-17T11:20:09.168Z,100522.59
2018-02-17T11:22:35.186Z,100522.31
2018-02-17T11:25:01.212Z,100516.29
2018-02-17T11:27:27.227Z,100519.13
2018-02-17T11:29:53.246Z,100523.05
2018-02-17T11:32:19.278Z,100514.39
2018-02-17T11:34:45.302Z,100510.47
2018-02-17T11:37:11.316Z,100500.61
2018-02-17T11:39:39.297Z,100503.22
2018-02-17T11:42:06.345Z,100505.47
2018-02-17T11:44:32.471Z,100501.56
2018-02-17T11:47:03.221Z,100495.57
2018-02-17T11:49:33.513Z,100492.59
2018-02-17T11:52:00.480Z,100489.38
2018-02-17T11:54:26.494Z,100491.27
2018-02-17T11:56:52.516Z,100490.48
2018-02-17T11:59:18.544Z,100490.70
2018-02-17T12:01:45.501Z,100489.41
2018-02-17T12:04:11.574Z,100495.41
2018-02-17T12:06:38.559Z,100488.50
2018-02-17T12:09:04.583Z,100488.11
2018-02-17T12:11:30.616Z,100485.20
2018-02-17T12:13:56.647Z,100486.20
2018-02-17T12:16:22.651Z,100476.08
2018-02-17T12:18:48.681Z,100477.60
2018-02-17T12:21:16.648Z,100468.17
2018-02-17T12:23:42.667Z,100469.05
2018-02-17T12:26:08.698Z,100461.91
2018-02-17T12:28:34.720Z,100465.25
2018-02-17T12:31:00.759Z,100464.00
2018-02-17T12:33:26.756Z,100466.73
2018-02-17T12:35:52.786Z,100463.38
2018-02-17T12:38:18.826Z,100456.86
2018-02-17T12:40:44.839Z,100454.45
2018-02-17T12:43:10.865Z,100443.31
2018-02-17T12:45:36.902Z,100443.42
2018-02-17T12:48:03.844Z,100440.41
2018-02-17T12:50:29.867Z,100433.84
2018-02-17T12:52:55.883Z,100428.30
2018-02-17T12:55:21.919Z,100423.36
2018-02-17T12:57:47.955Z,100427.23
2018-02-17T13:00:13.961Z,100423.87
2018-02-17T13:02:40.925Z,100421.20
2018-02-17T13:05:06.911Z,100411.36
2018-02-17T13:07:32.971Z,100408.06
2018-02-17T13:09:59.991Z,100407.48
2018-02-17T13:12:26.021Z,100408.22
2018-02-17T13:14:52.068Z,100401.84
2018-02-17T13:17:18.071Z,100406.64
2018-02-17T13:19:44.092Z,100381.38
2018-02-17T13:22:10.051Z,100397.52
2018-02-17T13:24:36.053Z,100406.45
2018-02-17T13:27:02.012Z,100406.59
2018-02-17T13:29:27.951Z,100399.26
2018-02-17T13:31:53.898Z,100394.97
2018-02-17T13:34:19.871Z,100397.63
2018-02-17T13:36:45.816Z,100390.30
2018-02-17T13:39:11.760Z,100395.90
2018-02-17T13:41:37.681Z,100395.98
2018-02-17T13:44:04.630Z,100399.35
2018-02-17T13:46:30.573Z,100398.64
2018-02-17T13:48:56.524Z,100403.02
2018-02-17T13:51:22.443Z,100406.19
2018-02-17T13:53:48.376Z,100400.04
2018-02-17T13:56:14.316Z,100409.89
2018-02-17T13:58:40.252Z,100407.05
2018-02-17T14:01:06.176Z,100411.64
2018-02-17T14:03:32.126Z,100411.05
2018-02-17T14:05:58.050Z,100411.44
2018-02-17T14:08:24.008Z,100413.45
2018-02-17T14:10:49.960Z,100414.38
2018-02-17T14:13:15.880Z,100417.39
2018-02-17T14:15:41.842Z,100415.66
2018-02-17T14:18:07.774Z,100418.41
2018-02-17T14:20:33.698Z,100415.88
2018-02-17T14:22:59.636Z,100418.19
2018-02-17T14:25:25.575Z,100413.03
2018-02-17T14:27:51.518Z,100418.84
2018-02-17T14:30:17.442Z,100416.45
2018-02-17T14:32:43.373Z,100409.43
2018-02-17T14:35:09.308Z,100406.33
2018-02-17T14:37:35.236Z,100402.11
2018-02-17T14:40:01.440Z,100401.13
2018-02-17T14:42:27.374Z,100405.27
2018-02-17T14:44:53.320Z,100401.38
2018-02-17T14:47:19.277Z,100406.63
2018-02-17T14:49:45.200Z,100401.09
2018-02-17T14:52:11.122Z,100385.53
2018-02-17T14:54:37.055Z,100403.57
2018-02-17T14:57:02.978Z,100403.02
2018-02-17T14:59:28.908Z,100407.83
2018-02-17T15:01:54.854Z,100401.67
2018-02-17T15:04:20.776Z,100399.50
2018-02-17T15:06:46.712Z,100402.44
2018-02-17T15:09:12.642Z,100403.64
2018-02-17T15:11:38.578Z,100404.94
2018-02-17T15:14:04.510Z,100401.72
2018-02-17T15:16:30.459Z,100400.46
2018-02-17T15:18:56.402Z,100413.70
2018-02-17T15:21:22.340Z,100408.85
2018-02-17T15:23:48.267Z,100412.75
2018-02-17T15:26:14.210Z,100404.75
2018-02-17T15:28:40.133Z,100402.06
2018-02-17T15:31:06.066Z,100397.77
2018-02-17T15:33:31.988Z,100404.46
2018-02-17T15:35:57.928Z,100404.27
2018-02-17T15:38:23.857Z,100404.33
2018-02-17T15:40:49.804Z,100401.72
2018-02-17T15:43:15.735Z,100407.20
2018-02-17T15:45:41.694Z,100408.27
2018-02-17T15:48:07.624Z,100400.85
2018-02-17T15:50:33.579Z,100408.38
2018-02-17T15:52:59.514Z,100360.74
2018-02-17T15:55:25.437Z,100415.63
2018-02-17T15:57:51.377Z,100416.27
2018-02-17T16:00:17.305Z,100419.95
2018-02-17T16:02:43.261Z,100413.52
2018-02-17T16:05:09.202Z,100423.69
2018-02-17T16:07:35.158Z,100422.67
2018-02-17T16:10:01.106Z,100424.92
2018-02-17T16:12:27.027Z,100425.75
2018-02-17T16:14:52.967Z,100425.11
2018-02-17T16:17:18.929Z,100424.11
2018-02-17T16:19:44.855Z,100429.81
2018-02-17T16:22:10.779Z,100434.07
2018-02-17T16:24:36.720Z,100441.60
2018-02-17T16:27:02.646Z,100446.29
2018-02-17T16:29:28.647Z,100455.82
2018-02-17T16:31:54.587Z,100453.01
2018-02-17T16:34:20.515Z,100459.26
2018-02-17T16:36:46.447Z,100462.02
2018-02-17T16:39:12.382Z,100466.95
2018-02-17T16:41:38.305Z,100470.07
2018-02-17T16:44:04.253Z,100468.99
2018-02-17T16:46:30.227Z,100477.28
2018-02-17T16:48:56.139Z,100473.80
2018-02-17T16:51:22.078Z,100469.18
2018-02-17T16:53:48.065Z,100479.41
2018-02-17T16:56:14.007Z,100473.66
2018-02-17T16:58:39.931Z,100478.19
2018-02-17T17:01:05.852Z,100480.39
2018-02-17T17:03:31.787Z,100483.24
2018-02-17T17:05:57.725Z,100483.64
2018-02-17T17:08:23.737Z,100484.95
2018-02-17T17:10:49.671Z,100473.46
2018-02-17T17:13:15.605Z,100487.16
2018-02-17T17:15:41.549Z,100487.80
2018-02-17T17:18:07.491Z,100488.55
2018-02-17T17:20:33.462Z,100486.39
2018-02-17T17:22:59.387Z,100458.22
2018-02-17T17:25:25.325Z,100499.58
2018-02-17T17:27:51.291Z,100497.95
2018-02-17T17:30:17.238Z,100496.05
2018-02-17T17:32:43.186Z,100495.08
2018-02-17T17:35:09.129Z,100491.70
2018-02-17T17:37:35.071Z,100495.09
2018-02-17T17:40:01.165Z,100495.23
2018-02-17T17:42:27.119Z,100494.84
2018-02-17T17:44:53.058Z,100490.89
2018-02-17T17:47:18.992Z,100492.88
2018-02-17T17:49:44.925Z,100498.56
2018-02-17T17:52:10.859Z,100497.80
2018-02-17T17:54:36.790Z,100496.67
2018-02-17T17:57:02.721Z,100499.14
2018-02-17T17:59:28.647Z,100502.36
2018-02-17T18:01:54.604Z,100507.34
2018-02-17T18:04:20.540Z,100506.79
2018-02-17T18:06:46.476Z,100504.25
2018-02-17T18:09:12.402Z,100512.71
2018-02-17T18:11:38.329Z,100513.83
2018-02-17T18:14:04.252Z,100512.16
2018-02-17T18:16:30.196Z,100510.49
2018-02-17T18:18:56.124Z,100510.92
2018-02-17T18:21:22.095Z,100505.45
2018-02-17T18:23:48.038Z,100512.86
2018-02-17T18:26:13.964Z,100510.12
2018-02-17T18:28:39.903Z,100516.22
2018-02-17T18:31:05.827Z,100513.92
2018-02-17T18:33:31.754Z,100510.94
2018-02-17T18:35:57.736Z,100511.06
2018-02-17T18:38:23.669Z,100514.16
2018-02-17T18:40:49.634Z,100516.53
2018-02-17T18:43:15.558Z,100516.20
2018-02-17T18:45:41.519Z,100518.36
2018-02-17T18:48:07.454Z,100523.53
2018-02-17T18:50:33.379Z,100529.02
2018-02-17T18:52:59.316Z,100521.56
2018-02-17T18:55:25.266Z,100521.18
2018-02-17T18:57:51.188Z,100521.95
2018-02-17T19:00:17.108Z,100521.61
2018-02-17T19:02:43.048Z,100521.80
2018-02-17T19:05:08.998Z,100516.36
2018-02-17T19:07:34.953Z,100525.36
2018-02-17T19:10:00.886Z,100530.07
2018-02-17T19:12:26.804Z,100533.52
2018-02-17T19:14:52.748Z,100538.24
2018-02-17T19:17:18.775Z,100535.48
2018-02-17T19:19:44.810Z,100535.05
2018-02-17T19:22:10.741Z,100542.89
2018-02-17T19:24:36.672Z,100539.21
2018-02-17T19:27:02.617Z,100538.87
2018-02-17T19:29:28.556Z,100539.69
2018-02-17T19:31:54.535Z,100541.55
2018-02-17T19:34:20.458Z,100546.11
2018-02-17T19:36:46.416Z,100544.91
2018-02-17T19:39:12.348Z,100555.47
2018-02-17T19:41:38.296Z,100556.41
2018-02-17T19:44:04.372Z,100562.66
2018-02-17T19:46:30.330Z,100556.30
2018-02-17T19:48:56.269Z,100562.05
2018-02-17T19:51:22.210Z,100553.25
2018-02-17T19:53:48.144Z,100560.95
2018-02-17T19:56:14.089Z,100566.07
2018-02-17T19:58:40.038Z,100569.83
2018-02-17T20:01:05.991Z,100564.02
2018-02-17T20:03:31.934Z,100558.56
2018-02-17T20:05:58.075Z,100561.00
2018-02-17T20:08:24.010Z,100565.37
2018-02-17T20:10:49.979Z,100564.81
2018-02-17T20:13:15.908Z,100566.73
2018-02-17T20:15:41.868Z,100566.41
2018-02-17T20:18:07.800Z,100564.05
2018-02-17T20:20:33.755Z,100569.78
2018-02-17T20:22:59.686Z,100569.02
2018-02-17T20:25:25.648Z,100568.05
2018-02-17T20:27:51.599Z,100564.75
2018-02-17T20:30:17.528Z,100570.86
2018-02-17T20:32:43.466Z,100574.44
2018-02-17T20:35:09.415Z,100568.82
2018-02-17T20:37:35.348Z,100575.27
2018-02-17T20:40:01.304Z,100576.95
2018-02-17T20:42:27.256Z,100583.69
2018-02-17T20:44:53.220Z,100583.47
2018-02-17T20:47:19.160Z,100586.63
2018-02-17T20:49:45.084Z,100589.14
2018-02-17T20:52:11.018Z,100590.33
2018-02-17T20:54:37.007Z,100598.20
2018-02-17T20:57:02.922Z,100603.92
2018-02-17T20:59:28.848Z,100608.53
2018-02-17T21:01:54.799Z,100597.48
2018-02-17T21:04:20.730Z,100605.45
2018-02-17T21:06:46.666Z,100601.88
2018-02-17T21:09:12.586Z,100602.95
2018-02-17T21:11:38.546Z,100606.69
2018-02-17T21:14:04.482Z,100605.82
2018-02-17T21:16:30.430Z,100610.67
2018-02-17T21:18:56.376Z,100614.70
2018-02-17T21:21:22.320Z,100615.26
2018-02-17T21:23:48.297Z,100615.09
2018-02-17T21:26:14.218Z,100622.15
2018-02-17T21:28:40.156Z,100614.35
2018-02-17T21:31:06.089Z,100628.32
2018-02-17T21:33:32.038Z,100629.45
2018-02-17T21:35:57.980Z,100628.66
2018-02-17T21:38:23.907Z,100636.87
2018-02-17T21:40:49.838Z,100640.41
2018-02-17T21:43:15.758Z,100639.86
2018-02-17T21:45:41.707Z,100644.31
2018-02-17T21:48:07.638Z,100637.58
2018-02-17T21:50:33.568Z,100643.98
2018-02-17T21:52:59.496Z,100599.73
2018-02-17T21:55:25.438Z,100655.14
2018-02-17T21:57:51.369Z,100654.96
2018-02-17T22:00:17.330Z,100656.16
2018-02-17T22:02:43.263Z,100666.23
2018-02-17T22:05:09.246Z,100667.39
2018-02-17T22:07:35.174Z,100663.72
2018-02-17T22:10:01.110Z,100666.55
2018-02-17T22:12:27.071Z,100673.47
2018-02-17T22:14:53.066Z,100669.22
2018-02-17T22:17:18.995Z,100669.28
2018-02-17T22:19:44.961Z,100672.62
2018-02-17T22:22:10.886Z,100670.16
2018-02-17T22:24:36.844Z,100678.93
2018-02-17T22:27:02.771Z,100684.52
2018-02-17T22:29:28.704Z,100680.52
2018-02-17T22:31:54.637Z,100685.41
2018-02-17T22:34:20.586Z,100680.75
2018-02-17T22:36:46.538Z,100679.22
2018-02-17T22:39:12.491Z,100685.47
2018-02-17T22:41:38.428Z,100693.32
2018-02-17T22:44:04.368Z,100695.08
2018-02-17T22:46:30.323Z,100696.98
2018-02-17T22:48:56.256Z,100697.20
2018-02-17T22:51:22.191Z,100707.21
2018-02-17T22:53:48.154Z,100704.18
2018-02-17T22:56:14.088Z,100701.66
2018-02-17T22:58:40.013Z,100708.20
2018-02-17T23:01:05.943Z,100709.63
2018-02-17T23:03:31.866Z,100708.37
2018-02-17T23:05:57.808Z,100714.56
2018-02-17T23:08:23.744Z,100708.39
2018-02-17T23:10:49.670Z,100716.40
2018-02-17T23:13:15.605Z,100715.42
2018-02-17T23:15:41.563Z,100718.87
2018-02-17T23:18:07.486Z,100724.83
2018-02-17T23:20:33.456Z,100724.81
2018-02-17T23:22:59.383Z,100636.96
2018-02-17T23:25:25.315Z,100730.37
2018-02-17T23:27:51.235Z,100726.42
2018-02-17T23:30:17.176Z,100731.80
2018-02-17T23:32:43.116Z,100740.24
2018-02-17T23:35:09.046Z,100734.28
2018-02-17T23:37:34.984Z,100739.85
2018-02-17T23:40:00.928Z,100741.47
2018-02-17T23:42:26.858Z,100743.60
2018-02-17T23:44:52.804Z,100739.31
2018-02-17T23:47:18.738Z,100739.55
2018-02-17T23:49:44.716Z,100746.79
2018-02-17T23:52:10.650Z,100746.91
2018-02-17T23:54:36.590Z,100744.17
2018-02-17T23:57:02.547Z,100745.73
2018-02-17T23:59:28.497Z,100746.78
